createdAt,value
2023-03-02T00:00:03.983Z,-2.69
2023-03-02T00:01:04.067Z,-2.62
2023-03-02T00:02:04.011Z,-2.62
2023-03-02T00:03:03.971Z,-2.69
2023-03-02T00:04:03.965Z,-2.69
2023-03-02T00:05:04.017Z,-2.75
2023-03-02T00:06:03.995Z,-2.75
2023-03-02T00:07:03.992Z,-2.75
2023-03-02T00:08:04.061Z,-2.75
2023-03-02T00:09:04.073Z,-2.75
2023-03-02T00:10:04.063Z,-2.75
2023-03-02T00:11:04.159Z,-2.75
2023-03-02T00:12:04.070Z,-2.75
2023-03-02T00:13:03.995Z,-2.75
2023-03-02T00:14:04.090Z,-2.75
2023-03-02T00:15:04.076Z,-2.81
2023-03-02T00:16:04.171Z,-2.81
2023-03-02T00:17:04.228Z,-2.81
2023-03-02T00:18:04.148Z,-2.81
2023-03-02T00:19:04.172Z,-2.81
2023-03-02T00:20:04.143Z,-2.81
2023-03-02T00:21:04.108Z,-2.81
2023-03-02T00:22:04.161Z,-2.81
2023-03-02T00:23:04.243Z,-2.81
2023-03-02T00:24:04.159Z,-2.88
2023-03-02T00:25:04.180Z,-2.88
2023-03-02T00:26:04.080Z,-2.88
2023-03-02T00:27:04.092Z,-2.88
2023-03-02T00:28:04.085Z,-2.88
2023-03-02T00:29:03.990Z,-2.88
2023-03-02T00:30:03.983Z,-2.88
2023-03-02T00:31:04.028Z,-2.88
2023-03-02T00:32:04.070Z,-2.88
2023-03-02T00:33:03.923Z,-2.88
2023-03-02T00:34:04.100Z,-2.88
2023-03-02T00:35:04.068Z,-2.94
2023-03-02T00:36:04.185Z,-2.94
2023-03-02T00:37:04.156Z,-2.94
2023-03-02T00:38:04.069Z,-2.94
2023-03-02T00:39:04.157Z,-2.94
2023-03-02T00:40:04.062Z,-3.00
2023-03-02T00:41:03.980Z,-3.00
2023-03-02T00:42:04.070Z,-3.00
2023-03-02T00:43:04.165Z,-3.00
2023-03-02T00:44:04.081Z,-3.00
2023-03-02T00:45:04.004Z,-3.00
2023-03-02T00:46:03.989Z,-3.06
2023-03-02T00:47:03.943Z,-3.06
2023-03-02T00:48:03.981Z,-3.06
2023-03-02T00:49:03.987Z,-3.06
2023-03-02T00:50:04.071Z,-3.06
2023-03-02T00:51:04.075Z,-3.06
2023-03-02T00:52:03.903Z,-3.06
2023-03-02T00:53:03.988Z,-3.06
2023-03-02T00:54:03.986Z,-3.06
2023-03-02T00:55:04.065Z,-3.06
2023-03-02T00:56:03.989Z,-3.06
2023-03-02T00:57:03.981Z,-3.06
2023-03-02T00:58:04.074Z,-3.12
2023-03-02T00:59:03.908Z,-3.12
2023-03-02T01:00:03.984Z,-3.12
2023-03-02T01:01:03.981Z,-3.12
2023-03-02T01:02:04.048Z,-3.12
2023-03-02T01:03:04.146Z,-3.12
2023-03-02T01:04:04.152Z,-3.12
2023-03-02T01:05:04.224Z,-3.12
2023-03-02T01:06:04.328Z,-3.12
2023-03-02T01:07:04.221Z,-3.12
2023-03-02T01:08:04.244Z,-3.12
2023-03-02T01:09:04.072Z,-3.12
2023-03-02T01:10:04.311Z,-3.19
2023-03-02T01:11:03.910Z,-3.19
2023-03-02T01:12:03.826Z,-3.19
2023-03-02T01:13:03.837Z,-3.19
2023-03-02T01:14:03.917Z,-3.19
2023-03-02T01:15:03.840Z,-3.19
2023-03-02T01:16:04.003Z,-3.25
2023-03-02T01:17:03.829Z,-3.25
2023-03-02T01:18:03.830Z,-3.25
2023-03-02T01:19:03.863Z,-3.25
2023-03-02T01:20:03.750Z,-3.25
2023-03-02T01:21:03.845Z,-3.25
2023-03-02T01:22:03.829Z,-3.25
2023-03-02T01:23:03.924Z,-3.25
2023-03-02T01:24:03.843Z,-3.25
2023-03-02T01:25:03.823Z,-3.25
2023-03-02T01:26:03.844Z,-3.31
2023-03-02T01:27:03.915Z,-3.31
2023-03-02T01:28:03.915Z,-3.31
2023-03-02T01:29:03.835Z,-3.31
2023-03-02T01:30:03.834Z,-3.31
2023-03-02T01:31:03.903Z,-3.31
2023-03-02T01:32:03.899Z,-3.31
2023-03-02T01:33:03.908Z,-3.31
2023-03-02T01:34:03.917Z,-3.31
2023-03-02T01:35:03.847Z,-3.38
2023-03-02T01:36:03.884Z,-3.38
2023-03-02T01:37:03.853Z,-3.38
2023-03-02T01:38:03.839Z,-3.38
2023-03-02T01:39:03.923Z,-3.38
2023-03-02T01:40:03.917Z,-3.38
2023-03-02T01:41:03.938Z,-3.38
2023-03-02T01:42:03.921Z,-3.38
2023-03-02T01:43:03.919Z,-3.44
2023-03-02T01:44:04.004Z,-3.44
2023-03-02T01:45:03.991Z,-3.44
2023-03-02T01:46:03.988Z,-3.44
2023-03-02T01:47:03.996Z,-3.44
2023-03-02T01:48:03.930Z,-3.44
2023-03-02T01:49:03.825Z,-3.44
2023-03-02T01:50:03.826Z,-3.44
2023-03-02T01:51:03.750Z,-3.44
2023-03-02T01:52:03.602Z,-3.44
2023-03-02T01:53:04.763Z,-3.44
2023-03-02T01:54:03.676Z,-3.44
2023-03-02T01:55:03.677Z,-3.50
2023-03-02T01:56:03.697Z,-3.50
2023-03-02T01:57:03.604Z,-3.50
2023-03-02T01:58:03.518Z,-3.50
2023-03-02T01:59:03.524Z,-3.50
2023-03-02T02:00:04.462Z,-3.50
2023-03-02T02:01:03.597Z,-3.50
2023-03-02T02:02:03.602Z,-3.50
2023-03-02T02:03:03.514Z,-3.50
2023-03-02T02:04:04.535Z,-3.56
2023-03-02T02:05:04.387Z,-3.56
2023-03-02T02:06:04.477Z,-3.56
2023-03-02T02:07:04.310Z,-3.56
2023-03-02T02:08:04.232Z,-3.56
2023-03-02T02:09:04.315Z,-3.56
2023-03-02T02:10:04.230Z,-3.56
2023-03-02T02:11:04.328Z,-3.56
2023-03-02T02:12:04.233Z,-3.56
2023-03-02T02:13:04.231Z,-3.56
2023-03-02T02:14:04.187Z,-3.56
2023-03-02T02:15:04.174Z,-3.56
2023-03-02T02:16:04.250Z,-3.62
2023-03-02T02:17:04.183Z,-3.62
2023-03-02T02:18:04.071Z,-3.56
2023-03-02T02:19:04.084Z,-3.62
2023-03-02T02:20:04.081Z,-3.62
2023-03-02T02:21:04.168Z,-3.62
2023-03-02T02:22:04.092Z,-3.62
2023-03-02T02:23:04.084Z,-3.62
2023-03-02T02:24:03.997Z,-3.69
2023-03-02T02:25:03.999Z,-3.69
2023-03-02T02:26:04.070Z,-3.69
2023-03-02T02:27:04.159Z,-3.69
2023-03-02T02:28:04.242Z,-3.69
2023-03-02T02:29:04.152Z,-3.69
2023-03-02T02:30:04.155Z,-3.69
2023-03-02T02:31:04.149Z,-3.69
2023-03-02T02:32:04.371Z,-3.69
2023-03-02T02:33:04.230Z,-3.69
2023-03-02T02:34:04.318Z,-3.69
2023-03-02T02:35:04.323Z,-3.69
2023-03-02T02:36:04.351Z,-3.69
2023-03-02T02:37:04.239Z,-3.75
2023-03-02T02:38:04.243Z,-3.75
2023-03-02T02:39:04.251Z,-3.75
2023-03-02T02:40:04.237Z,-3.75
2023-03-02T02:41:04.235Z,-3.75
2023-03-02T02:42:04.164Z,-3.75
2023-03-02T02:43:04.228Z,-3.75
2023-03-02T02:44:04.166Z,-3.75
2023-03-02T02:45:04.147Z,-3.75
2023-03-02T02:46:04.212Z,-3.75
2023-03-02T02:47:04.177Z,-3.81
2023-03-02T02:48:04.074Z,-3.81
2023-03-02T02:49:04.159Z,-3.81
2023-03-02T02:50:04.258Z,-3.81
2023-03-02T02:51:04.272Z,-3.81
2023-03-02T02:52:04.243Z,-3.88
2023-03-02T02:53:04.149Z,-3.88
2023-03-02T02:54:04.252Z,-3.88
2023-03-02T02:55:04.238Z,-3.88
2023-03-02T02:56:04.147Z,-3.88
2023-03-02T02:57:04.105Z,-3.88
2023-03-02T02:58:04.146Z,-3.94
2023-03-02T02:59:04.236Z,-3.94
2023-03-02T03:00:04.159Z,-3.94
2023-03-02T03:01:04.192Z,-3.88
2023-03-02T03:02:04.248Z,-3.94
2023-03-02T03:03:04.078Z,-3.94
2023-03-02T03:04:04.262Z,-3.94
2023-03-02T03:05:04.247Z,-3.94
2023-03-02T03:06:04.079Z,-3.94
2023-03-02T03:07:04.168Z,-3.94
2023-03-02T03:08:04.157Z,-3.94
2023-03-02T03:09:04.352Z,-3.94
2023-03-02T03:10:04.321Z,-4.00
2023-03-02T03:11:04.313Z,-3.94
2023-03-02T03:12:04.407Z,-3.94
2023-03-02T03:13:04.400Z,-4.00
2023-03-02T03:14:04.308Z,-4.00
2023-03-02T03:15:04.249Z,-4.00
2023-03-02T03:16:04.395Z,-4.00
2023-03-02T03:17:04.476Z,-4.00
2023-03-02T03:18:04.308Z,-4.06
2023-03-02T03:19:04.226Z,-4.06
2023-03-02T03:20:04.163Z,-4.06
2023-03-02T03:21:04.144Z,-4.06
2023-03-02T03:22:04.143Z,-4.06
2023-03-02T03:23:04.231Z,-4.06
2023-03-02T03:24:04.312Z,-4.06
2023-03-02T03:25:04.392Z,-4.06
2023-03-02T03:26:04.310Z,-4.06
2023-03-02T03:27:04.302Z,-4.06
2023-03-02T03:28:04.412Z,-4.06
2023-03-02T03:29:04.299Z,-4.12
2023-03-02T03:30:04.400Z,-4.12
2023-03-02T03:31:04.473Z,-4.06
2023-03-02T03:32:04.431Z,-4.12
2023-03-02T03:33:04.407Z,-4.12
2023-03-02T03:34:04.399Z,-4.12
2023-03-02T03:35:04.301Z,-4.12
2023-03-02T03:36:04.402Z,-4.12
2023-03-02T03:37:04.459Z,-4.19
2023-03-02T03:38:04.382Z,-4.19
2023-03-02T03:39:04.396Z,-4.12
2023-03-02T03:40:04.383Z,-4.19
2023-03-02T03:41:04.410Z,-4.19
2023-03-02T03:42:04.385Z,-4.19
2023-03-02T03:43:04.468Z,-4.19
2023-03-02T03:44:04.467Z,-4.19
2023-03-02T03:45:03.494Z,-4.19
2023-03-02T03:46:03.548Z,-4.19
2023-03-02T03:47:03.520Z,-4.25
2023-03-02T03:48:04.542Z,-4.25
2023-03-02T03:49:04.478Z,-4.25
2023-03-02T03:50:03.505Z,-4.25
2023-03-02T03:51:04.466Z,-4.25
2023-03-02T03:52:04.383Z,-4.25
2023-03-02T03:53:04.393Z,-4.25
2023-03-02T03:54:04.328Z,-4.25
2023-03-02T03:55:04.143Z,-4.25
2023-03-02T03:56:04.223Z,-4.25
2023-03-02T03:57:04.956Z,-4.31
2023-03-02T03:58:03.899Z,-4.31
2023-03-02T03:59:03.997Z,-4.31
2023-03-02T04:00:03.985Z,-4.31
2023-03-02T04:01:04.078Z,-4.31
2023-03-02T04:02:04.076Z,-4.31
2023-03-02T04:03:04.054Z,-4.31
2023-03-02T04:04:04.137Z,-4.31
2023-03-02T04:05:04.237Z,-4.31
2023-03-02T04:06:04.217Z,-4.31
2023-03-02T04:07:04.236Z,-4.31
2023-03-02T04:08:04.223Z,-4.31
2023-03-02T04:09:04.222Z,-4.31
2023-03-02T04:10:04.271Z,-4.31
2023-03-02T04:11:04.219Z,-4.38
2023-03-02T04:12:04.220Z,-4.38
2023-03-02T04:13:04.324Z,-4.38
2023-03-02T04:14:04.299Z,-4.38
2023-03-02T04:15:04.214Z,-4.44
2023-03-02T04:16:04.368Z,-4.44
2023-03-02T04:17:04.212Z,-4.44
2023-03-02T04:18:04.304Z,-4.44
2023-03-02T04:19:04.389Z,-4.44
2023-03-02T04:20:04.387Z,-4.44
2023-03-02T04:21:04.306Z,-4.44
2023-03-02T04:22:04.394Z,-4.44
2023-03-02T04:23:04.388Z,-4.44
2023-03-02T04:24:04.478Z,-4.38
2023-03-02T04:25:04.377Z,-4.44
2023-03-02T04:26:04.463Z,-4.44
2023-03-02T04:27:04.484Z,-4.44
2023-03-02T04:28:04.386Z,-4.44
2023-03-02T04:29:03.541Z,-4.44
2023-03-02T04:30:04.460Z,-4.44
2023-03-02T04:31:04.531Z,-4.50
2023-03-02T04:32:04.512Z,-4.50
2023-03-02T04:33:04.417Z,-4.50
2023-03-02T04:34:04.394Z,-4.50
2023-03-02T04:35:04.472Z,-4.50
2023-03-02T04:36:04.464Z,-4.50
2023-03-02T04:37:03.442Z,-4.50
2023-03-02T04:38:03.537Z,-4.50
2023-03-02T04:39:03.685Z,-4.50
2023-03-02T04:40:03.528Z,-4.50
2023-03-02T04:41:03.505Z,-4.50
2023-03-02T04:42:03.520Z,-4.50
2023-03-02T04:43:04.382Z,-4.50
2023-03-02T04:44:03.510Z,-4.50
2023-03-02T04:45:03.453Z,-4.56
2023-03-02T04:46:03.581Z,-4.56
2023-03-02T04:47:04.402Z,-4.56
2023-03-02T04:48:03.435Z,-4.56
2023-03-02T04:49:03.511Z,-4.56
2023-03-02T04:50:03.526Z,-4.56
2023-03-02T04:51:03.516Z,-4.62
2023-03-02T04:52:03.614Z,-4.62
2023-03-02T04:53:03.596Z,-4.62
2023-03-02T04:54:03.606Z,-4.62
2023-03-02T04:55:03.616Z,-4.62
2023-03-02T04:56:03.646Z,-4.62
2023-03-02T04:57:03.520Z,-4.62
2023-03-02T04:58:03.865Z,-4.62
2023-03-02T04:59:03.766Z,-4.62
2023-03-02T05:00:03.758Z,-4.62
2023-03-02T05:01:03.692Z,-4.62
2023-03-02T05:02:03.849Z,-4.62
2023-03-02T05:03:03.681Z,-4.62
2023-03-02T05:04:03.804Z,-4.69
2023-03-02T05:05:03.681Z,-4.69
2023-03-02T05:06:03.606Z,-4.69
2023-03-02T05:07:03.679Z,-4.69
2023-03-02T05:08:03.674Z,-4.69
2023-03-02T05:09:03.755Z,-4.69
2023-03-02T05:10:03.764Z,-4.69
2023-03-02T05:11:03.680Z,-4.69
2023-03-02T05:12:03.667Z,-4.69
2023-03-02T05:13:03.678Z,-4.69
2023-03-02T05:14:04.175Z,-4.69
2023-03-02T05:15:04.151Z,-4.69
2023-03-02T05:16:04.266Z,-4.75
2023-03-02T05:17:04.233Z,-4.75
2023-03-02T05:18:04.153Z,-4.75
2023-03-02T05:19:04.242Z,-4.75
2023-03-02T05:20:04.328Z,-4.75
2023-03-02T05:21:04.401Z,-4.75
2023-03-02T05:22:04.397Z,-4.75
2023-03-02T05:23:04.474Z,-4.75
2023-03-02T05:24:04.396Z,-4.75
2023-03-02T05:25:04.730Z,-4.75
2023-03-02T05:26:03.596Z,-4.75
2023-03-02T05:27:03.597Z,-4.75
2023-03-02T05:28:03.680Z,-4.75
2023-03-02T05:29:03.597Z,-4.81
2023-03-02T05:30:03.685Z,-4.81
2023-03-02T05:31:03.682Z,-4.81
2023-03-02T05:32:03.663Z,-4.81
2023-03-02T05:33:03.683Z,-4.81
2023-03-02T05:34:03.832Z,-4.81
2023-03-02T05:35:03.843Z,-4.81
2023-03-02T05:36:03.913Z,-4.81
2023-03-02T05:37:03.850Z,-4.81
2023-03-02T05:38:03.685Z,-4.81
2023-03-02T05:39:03.605Z,-4.81
2023-03-02T05:40:03.836Z,-4.88
2023-03-02T05:41:03.839Z,-4.88
2023-03-02T05:42:03.924Z,-4.88
2023-03-02T05:43:03.832Z,-4.88
2023-03-02T05:44:03.919Z,-4.81
2023-03-02T05:45:03.843Z,-4.88
2023-03-02T05:46:03.770Z,-4.88
2023-03-02T05:47:03.885Z,-4.88
2023-03-02T05:48:04.011Z,-4.88
2023-03-02T05:49:03.932Z,-4.88
2023-03-02T05:50:03.915Z,-4.88
2023-03-02T05:51:04.002Z,-4.88
2023-03-02T05:52:03.998Z,-4.88
2023-03-02T05:53:04.007Z,-4.88
2023-03-02T05:54:03.994Z,-4.88
2023-03-02T05:55:03.828Z,-4.88
2023-03-02T05:56:04.004Z,-4.88
2023-03-02T05:57:03.917Z,-4.88
2023-03-02T05:58:03.907Z,-4.88
2023-03-02T05:59:03.914Z,-4.88
2023-03-02T06:00:04.001Z,-4.88
2023-03-02T06:01:03.910Z,-4.88
2023-03-02T06:02:04.083Z,-4.88
2023-03-02T06:03:04.159Z,-4.81
2023-03-02T06:04:04.169Z,-4.88
2023-03-02T06:05:04.257Z,-4.88
2023-03-02T06:06:04.312Z,-4.88
2023-03-02T06:07:04.324Z,-4.88
2023-03-02T06:08:04.319Z,-4.88
2023-03-02T06:09:04.391Z,-4.88
2023-03-02T06:10:04.338Z,-4.88
2023-03-02T06:11:04.159Z,-4.88
2023-03-02T06:12:04.321Z,-4.88
2023-03-02T06:13:04.223Z,-4.88
2023-03-02T06:14:04.232Z,-4.81
2023-03-02T06:15:04.267Z,-4.81
2023-03-02T06:16:04.541Z,-4.81
2023-03-02T06:17:04.392Z,-4.75
2023-03-02T06:18:04.310Z,-4.81
2023-03-02T06:19:04.321Z,-4.75
2023-03-02T06:20:04.409Z,-4.75
2023-03-02T06:21:04.488Z,-4.75
2023-03-02T06:22:03.525Z,-4.75
2023-03-02T06:23:04.473Z,-4.75
2023-03-02T06:24:03.512Z,-4.69
2023-03-02T06:25:03.687Z,-4.69
2023-03-02T06:26:03.552Z,-4.69
2023-03-02T06:27:03.588Z,-4.62
2023-03-02T06:28:03.547Z,-4.44
2023-03-02T06:29:03.524Z,-4.44
2023-03-02T06:30:03.536Z,-4.44
2023-03-02T06:31:03.512Z,-4.50
2023-03-02T06:32:03.561Z,-4.31
2023-03-02T06:33:03.614Z,-4.31
2023-03-02T06:34:03.600Z,-4.19
2023-03-02T06:35:03.736Z,-4.19
2023-03-02T06:36:03.748Z,-4.19
2023-03-02T06:37:03.684Z,-4.12
2023-03-02T06:38:03.848Z,-4.12
2023-03-02T06:39:03.747Z,-4.00
2023-03-02T06:40:03.759Z,-4.00
2023-03-02T06:41:03.842Z,-3.88
2023-03-02T06:42:03.752Z,-3.62
2023-03-02T06:43:04.354Z,-3.56
2023-03-02T06:44:04.076Z,-3.44
2023-03-02T06:45:04.072Z,-3.38
2023-03-02T06:46:04.346Z,-3.31
2023-03-02T06:47:04.168Z,-3.06
2023-03-02T06:48:04.167Z,-2.94
2023-03-02T06:49:04.153Z,-2.75
2023-03-02T06:50:04.611Z,-2.50
2023-03-02T06:51:04.225Z,-2.38
2023-03-02T06:52:04.234Z,-2.25
2023-03-02T06:53:04.237Z,-2.12
2023-03-02T06:54:04.237Z,-1.94
2023-03-02T06:55:04.242Z,-1.81
2023-03-02T06:56:04.445Z,-1.31
2023-03-02T06:57:04.479Z,-1.12
2023-03-02T06:58:03.604Z,-1.00
2023-03-02T06:59:03.617Z,-0.88
2023-03-02T07:00:03.803Z,-0.50
2023-03-02T07:01:03.801Z,-0.38
2023-03-02T07:02:03.748Z,-0.25
2023-03-02T07:03:03.745Z,-0.12
2023-03-02T07:04:03.834Z,0.00
2023-03-02T07:05:03.916Z,0.12
2023-03-02T07:06:03.919Z,0.31
2023-03-02T07:07:03.751Z,0.44
2023-03-02T07:08:03.851Z,0.56
2023-03-02T07:09:03.822Z,0.69
2023-03-02T07:10:03.834Z,0.81
2023-03-02T07:11:03.844Z,0.94
2023-03-02T07:12:03.921Z,1.12
2023-03-02T07:13:03.998Z,1.31
2023-03-02T07:14:03.994Z,1.50
2023-03-02T07:15:04.004Z,1.69
2023-03-02T07:16:03.993Z,1.81
2023-03-02T07:17:05.169Z,2.00
2023-03-02T07:18:04.156Z,2.19
2023-03-02T07:19:04.259Z,2.38
2023-03-02T07:20:04.231Z,2.50
2023-03-02T07:21:04.318Z,2.69
2023-03-02T07:22:04.262Z,2.88
2023-03-02T07:23:04.322Z,3.00
2023-03-02T07:24:04.426Z,3.12
2023-03-02T07:25:04.346Z,3.31
2023-03-02T07:26:04.322Z,3.44
2023-03-02T07:27:04.394Z,3.56
2023-03-02T07:28:04.226Z,3.75
2023-03-02T07:29:04.233Z,3.88
2023-03-02T07:30:04.154Z,4.00
2023-03-02T07:31:04.200Z,4.12
2023-03-02T07:32:04.301Z,4.25
2023-03-02T07:33:04.153Z,4.38
2023-03-02T07:34:04.228Z,4.44
2023-03-02T07:35:04.222Z,4.56
2023-03-02T07:36:04.298Z,4.62
2023-03-02T07:37:04.144Z,4.75
2023-03-02T07:38:04.181Z,4.88
2023-03-02T07:39:04.223Z,5.00
2023-03-02T07:40:04.153Z,5.19
2023-03-02T07:41:04.142Z,5.31
2023-03-02T07:42:04.074Z,5.38
2023-03-02T07:43:03.993Z,5.50
2023-03-02T07:44:03.991Z,5.62
2023-03-02T07:45:04.001Z,5.69
2023-03-02T07:46:03.894Z,5.81
2023-03-02T07:47:03.745Z,5.94
2023-03-02T07:48:03.922Z,6.00
2023-03-02T07:49:03.908Z,6.12
2023-03-02T07:50:03.830Z,6.31
2023-03-02T07:51:03.935Z,6.38
2023-03-02T07:52:04.006Z,6.44
2023-03-02T07:53:04.080Z,6.62
2023-03-02T07:54:04.005Z,6.75
2023-03-02T07:55:04.007Z,6.81
2023-03-02T07:56:03.935Z,6.94
2023-03-02T07:57:03.991Z,7.00
2023-03-02T07:58:03.917Z,7.00
2023-03-02T07:59:03.909Z,7.06
2023-03-02T08:00:03.926Z,7.12
2023-03-02T08:01:04.087Z,7.19
2023-03-02T08:02:04.066Z,7.19
2023-03-02T08:03:04.084Z,7.19
2023-03-02T08:04:03.991Z,7.25
2023-03-02T08:05:03.984Z,7.31
2023-03-02T08:06:04.091Z,7.38
2023-03-02T08:07:04.104Z,7.44
2023-03-02T08:08:03.982Z,7.50
2023-03-02T08:09:04.080Z,7.62
2023-03-02T08:10:04.009Z,7.75
2023-03-02T08:11:03.931Z,7.75
2023-03-02T08:12:03.994Z,7.75
2023-03-02T08:13:04.011Z,7.81
2023-03-02T08:14:04.009Z,7.88
2023-03-02T08:15:05.056Z,7.94
2023-03-02T08:16:04.305Z,8.00
2023-03-02T08:17:04.159Z,7.94
2023-03-02T08:18:04.244Z,7.94
2023-03-02T08:19:04.344Z,7.94
2023-03-02T08:20:04.517Z,7.94
2023-03-02T08:21:03.514Z,7.94
2023-03-02T08:22:04.494Z,7.94
2023-03-02T08:23:03.516Z,7.94
2023-03-02T08:24:03.612Z,8.00
2023-03-02T08:25:03.594Z,8.00
2023-03-02T08:26:03.604Z,8.00
2023-03-02T08:27:03.514Z,8.00
2023-03-02T08:28:04.508Z,8.00
2023-03-02T08:29:03.594Z,8.00
2023-03-02T08:30:04.023Z,8.00
2023-03-02T08:31:04.134Z,8.00
2023-03-02T08:32:04.092Z,8.00
2023-03-02T08:33:06.719Z,8.00
2023-03-02T08:34:03.996Z,7.94
2023-03-02T08:35:04.171Z,7.88
2023-03-02T08:36:04.160Z,7.88
2023-03-02T08:37:04.163Z,7.81
2023-03-02T08:38:04.020Z,7.69
2023-03-02T08:39:04.008Z,7.56
2023-03-02T08:40:04.006Z,7.50
2023-03-02T08:41:04.083Z,7.50
2023-03-02T08:42:04.007Z,7.56
2023-03-02T08:43:04.096Z,7.56
2023-03-02T08:44:04.037Z,7.56
2023-03-02T08:45:03.999Z,7.50
2023-03-02T08:46:04.144Z,7.31
2023-03-02T08:47:04.163Z,7.25
2023-03-02T08:48:04.004Z,7.19
2023-03-02T08:49:04.163Z,7.19
2023-03-02T08:50:04.083Z,7.19
2023-03-02T08:51:04.161Z,7.12
2023-03-02T08:52:04.241Z,7.12
2023-03-02T08:53:04.160Z,7.06
2023-03-02T08:54:04.233Z,6.94
2023-03-02T08:55:04.456Z,6.88
2023-03-02T08:56:04.105Z,6.75
2023-03-02T08:57:04.151Z,6.75
2023-03-02T08:58:04.262Z,6.69
2023-03-02T08:59:04.226Z,6.75
2023-03-02T09:00:04.224Z,6.69
2023-03-02T09:01:04.358Z,6.62
2023-03-02T09:02:04.323Z,6.56
2023-03-02T09:03:04.077Z,6.50
2023-03-02T09:04:04.210Z,6.44
2023-03-02T09:05:04.077Z,6.44
2023-03-02T09:06:04.155Z,6.38
2023-03-02T09:07:04.236Z,6.38
2023-03-02T09:08:04.328Z,6.38
2023-03-02T09:09:04.230Z,6.38
2023-03-02T09:10:04.234Z,6.38
2023-03-02T09:11:04.312Z,6.38
2023-03-02T09:12:04.332Z,6.44
2023-03-02T09:13:05.219Z,6.38
2023-03-02T09:14:04.419Z,6.38
2023-03-02T09:15:03.510Z,6.31
2023-03-02T09:16:04.477Z,6.25
2023-03-02T09:17:04.551Z,6.25
2023-03-02T09:18:03.514Z,6.19
2023-03-02T09:19:03.593Z,6.19
2023-03-02T09:20:03.580Z,6.12
2023-03-02T09:21:03.514Z,6.06
2023-03-02T09:22:03.594Z,6.00
2023-03-02T09:23:03.597Z,6.00
2023-03-02T09:24:03.733Z,5.94
2023-03-02T09:25:03.516Z,5.81
2023-03-02T09:26:03.526Z,5.75
2023-03-02T09:27:04.401Z,5.75
2023-03-02T09:28:03.515Z,5.75
2023-03-02T09:29:03.599Z,5.75
2023-03-02T09:30:03.597Z,5.69
2023-03-02T09:31:03.603Z,5.69
2023-03-02T09:32:03.759Z,5.62
2023-03-02T09:33:03.637Z,5.62
2023-03-02T09:34:04.423Z,5.56
2023-03-02T09:35:04.485Z,5.50
2023-03-02T09:36:04.329Z,5.44
2023-03-02T09:37:04.408Z,5.31
2023-03-02T09:38:03.564Z,5.31
2023-03-02T09:39:03.608Z,5.25
2023-03-02T09:40:04.162Z,5.25
2023-03-02T09:41:04.239Z,5.25
2023-03-02T09:42:04.416Z,5.25
2023-03-02T09:43:03.532Z,5.25
2023-03-02T09:44:03.600Z,5.25
2023-03-02T09:45:03.618Z,5.19
2023-03-02T09:46:03.578Z,5.19
2023-03-02T09:47:04.429Z,5.12
2023-03-02T09:48:04.400Z,5.12
2023-03-02T09:49:04.365Z,5.12
2023-03-02T09:50:04.245Z,5.12
2023-03-02T09:51:04.316Z,5.06
2023-03-02T09:52:04.403Z,5.06
2023-03-02T09:53:04.404Z,5.06
2023-03-02T09:54:04.364Z,5.06
2023-03-02T09:55:04.235Z,5.06
2023-03-02T09:56:04.319Z,5.06
2023-03-02T09:57:04.337Z,5.12
2023-03-02T09:58:04.329Z,5.06
2023-03-02T09:59:04.401Z,5.06
2023-03-02T10:00:18.003Z,5.06
2023-03-02T10:01:04.434Z,5.06
2023-03-02T10:02:04.396Z,5.06
2023-03-02T10:03:16.139Z,5.12
2023-03-02T10:04:03.715Z,5.12
2023-03-02T10:05:03.602Z,5.06
2023-03-02T10:06:03.602Z,5.06
2023-03-02T10:07:03.516Z,5.06
2023-03-02T10:08:03.527Z,5.06
2023-03-02T10:09:03.519Z,5.06
2023-03-02T10:10:03.526Z,5.06
2023-03-02T10:11:03.515Z,5.06
2023-03-02T10:12:04.506Z,5.06
2023-03-02T10:13:04.503Z,5.12
2023-03-02T10:14:04.396Z,5.12
2023-03-02T10:15:04.401Z,5.12
2023-03-02T10:16:03.570Z,5.12
2023-03-02T10:17:03.611Z,5.06
2023-03-02T10:18:04.501Z,5.12
2023-03-02T10:19:05.522Z,5.12
2023-03-02T10:20:04.400Z,5.12
2023-03-02T10:21:04.393Z,5.19
2023-03-02T10:22:04.507Z,5.19
2023-03-02T10:23:04.399Z,5.25
2023-03-02T10:24:03.512Z,5.25
2023-03-02T10:25:03.515Z,5.31
2023-03-02T10:26:03.512Z,5.31
2023-03-02T10:27:03.528Z,5.31
2023-03-02T10:28:03.595Z,5.31
2023-03-02T10:29:03.510Z,5.38
2023-03-02T10:30:04.479Z,5.38
2023-03-02T10:31:05.430Z,5.38
2023-03-02T10:32:04.522Z,5.38
2023-03-02T10:33:04.389Z,5.38
2023-03-02T10:34:04.470Z,5.31
2023-03-02T10:35:04.489Z,5.31
2023-03-02T10:36:04.485Z,5.31
2023-03-02T10:37:04.503Z,5.31
2023-03-02T10:38:03.524Z,5.38
2023-03-02T10:39:03.585Z,5.44
2023-03-02T10:40:03.608Z,5.50
2023-03-02T10:41:03.607Z,5.50
2023-03-02T10:42:03.652Z,5.56
2023-03-02T10:43:03.610Z,5.56
2023-03-02T10:44:03.531Z,5.56
2023-03-02T10:45:03.508Z,5.56
2023-03-02T10:46:03.650Z,5.56
2023-03-02T10:47:03.555Z,5.56
2023-03-02T10:48:03.518Z,5.62
2023-03-02T10:49:03.512Z,5.62
2023-03-02T10:50:03.682Z,5.62
2023-03-02T10:51:03.604Z,5.62
2023-03-02T10:52:03.761Z,5.56
2023-03-02T10:53:05.246Z,5.62
2023-03-02T10:54:03.688Z,5.69
2023-03-02T10:55:03.528Z,5.69
2023-03-02T10:56:03.681Z,5.75
2023-03-02T10:57:03.661Z,5.75
2023-03-02T10:58:03.594Z,5.75
2023-03-02T10:59:03.593Z,5.75
2023-03-02T11:00:03.508Z,5.81
2023-03-02T11:01:03.587Z,5.81
2023-03-02T11:02:03.633Z,5.81
2023-03-02T11:03:03.572Z,5.81
2023-03-02T11:04:03.671Z,5.81
2023-03-02T11:05:03.690Z,5.81
2023-03-02T11:06:03.611Z,5.81
2023-03-02T11:07:03.522Z,5.88
2023-03-02T11:08:03.527Z,5.81
2023-03-02T11:09:03.545Z,5.81
2023-03-02T11:10:03.516Z,5.81
2023-03-02T11:11:03.532Z,5.81
2023-03-02T11:12:03.676Z,5.75
2023-03-02T11:13:03.770Z,5.69
2023-03-02T11:14:03.588Z,5.69
2023-03-02T11:15:03.916Z,5.69
2023-03-02T11:16:03.979Z,5.75
2023-03-02T11:17:03.948Z,5.75
2023-03-02T11:18:03.743Z,5.75
2023-03-02T11:19:03.913Z,5.75
2023-03-02T11:20:03.749Z,5.81
2023-03-02T11:21:03.838Z,5.81
2023-03-02T11:22:03.904Z,5.81
2023-03-02T11:23:03.819Z,5.88
2023-03-02T11:24:03.928Z,5.88
2023-03-02T11:25:03.834Z,5.81
2023-03-02T11:26:03.911Z,5.88
2023-03-02T11:27:04.013Z,5.81
2023-03-02T11:28:03.898Z,5.81
2023-03-02T11:29:03.840Z,5.81
2023-03-02T11:30:03.912Z,5.81
2023-03-02T11:31:03.999Z,5.81
2023-03-02T11:32:03.978Z,5.88
2023-03-02T11:33:04.023Z,5.88
2023-03-02T11:34:11.484Z,5.88
2023-03-02T11:35:03.904Z,5.88
2023-03-02T11:36:04.117Z,5.94
2023-03-02T11:37:03.994Z,5.94
2023-03-02T11:38:03.933Z,5.94
2023-03-02T11:39:04.059Z,5.88
2023-03-02T11:40:04.143Z,5.94
2023-03-02T11:41:04.070Z,5.94
2023-03-02T11:42:04.151Z,5.94
2023-03-02T11:43:04.157Z,6.00
2023-03-02T11:44:04.157Z,6.00
2023-03-02T11:45:04.109Z,6.00
2023-03-02T11:46:08.694Z,6.06
2023-03-02T11:47:04.059Z,6.06
2023-03-02T11:48:04.245Z,6.12
2023-03-02T11:49:03.911Z,6.19
2023-03-02T11:50:03.846Z,6.25
2023-03-02T11:51:03.926Z,6.25
2023-03-02T11:52:03.935Z,6.25
2023-03-02T11:53:04.006Z,6.25
2023-03-02T11:54:03.909Z,6.31
2023-03-02T11:55:03.812Z,6.31
2023-03-02T11:56:03.785Z,6.31
2023-03-02T11:57:03.843Z,6.25
2023-03-02T11:58:03.971Z,6.25
2023-03-02T11:59:03.748Z,6.19
2023-03-02T12:00:03.677Z,6.19
2023-03-02T12:01:03.739Z,6.19
2023-03-02T12:02:03.730Z,6.19
2023-03-02T12:03:03.675Z,6.19
2023-03-02T12:05:03.717Z,6.19
2023-03-02T12:06:04.532Z,6.25
2023-03-02T12:07:03.709Z,6.25
2023-03-02T12:08:03.775Z,6.25
2023-03-02T12:09:03.820Z,6.25
2023-03-02T12:10:03.757Z,6.19
2023-03-02T12:11:03.857Z,6.19
2023-03-02T12:12:04.885Z,6.25
2023-03-02T12:13:03.749Z,6.25
2023-03-02T12:14:03.672Z,6.25
2023-03-02T12:15:03.756Z,6.31
2023-03-02T12:16:03.952Z,6.31
2023-03-02T12:17:03.909Z,6.31
2023-03-02T12:18:03.948Z,6.31
2023-03-02T12:19:03.910Z,6.38
2023-03-02T12:20:03.999Z,6.38
2023-03-02T12:21:04.004Z,6.38
2023-03-02T12:22:03.954Z,6.38
2023-03-02T12:23:04.093Z,6.44
2023-03-02T12:24:04.181Z,6.50
2023-03-02T12:25:04.158Z,6.50
2023-03-02T12:26:04.240Z,6.50
2023-03-02T12:27:04.237Z,6.50
2023-03-02T12:28:04.318Z,6.50
2023-03-02T12:29:04.396Z,6.50
2023-03-02T12:30:04.460Z,6.50
2023-03-02T12:31:04.396Z,6.56
2023-03-02T12:32:04.328Z,6.56
2023-03-02T12:33:04.330Z,6.62
2023-03-02T12:34:04.320Z,6.62
2023-03-02T12:35:04.307Z,6.62
2023-03-02T12:36:04.510Z,6.62
2023-03-02T12:37:04.518Z,6.62
2023-03-02T12:38:04.584Z,6.62
2023-03-02T12:39:04.485Z,6.62
2023-03-02T12:40:04.474Z,6.69
2023-03-02T12:41:03.543Z,6.69
2023-03-02T12:42:04.528Z,6.69
2023-03-02T12:43:03.525Z,6.69
2023-03-02T12:44:03.563Z,6.62
2023-03-02T12:45:03.691Z,6.69
2023-03-02T12:46:03.621Z,6.69
2023-03-02T12:47:04.135Z,6.69
2023-03-02T12:48:04.002Z,6.75
2023-03-02T12:49:04.532Z,6.75
2023-03-02T12:50:03.516Z,6.81
2023-03-02T12:51:03.559Z,6.81
2023-03-02T12:52:03.700Z,6.81
2023-03-02T12:53:03.586Z,6.81
2023-03-02T12:54:03.611Z,6.81
2023-03-02T12:55:03.602Z,6.81
2023-03-02T12:56:03.670Z,6.81
2023-03-02T12:57:03.687Z,6.88
2023-03-02T12:58:03.516Z,6.88
2023-03-02T12:59:03.612Z,6.88
2023-03-02T13:00:03.642Z,6.94
2023-03-02T13:01:03.709Z,6.94
2023-03-02T13:02:03.675Z,6.94
2023-03-02T13:03:03.751Z,7.00
2023-03-02T13:04:03.862Z,7.00
2023-03-02T13:05:03.767Z,7.00